Time;durP1;ratioP1;P1;durP2;ratioP2;P2;SDS_P1;SDS_P2;PMS_P1;PMS_P2;Temp;Humidity;BMP_temperature;BMP_pressure;BME280_temperature;BME280_humidity;BME280_pressure;Samples;Min_cycle;Max_cycle;Signal;HPM_P1;HPM_P2
2023/10/26 00:00:36;;;;;;;3.60;3.30;;;11.30;99.90;;;;;;5077097;28;20189;-78
2023/10/26 00:03:02;;;;;;;4.70;4.30;;;11.30;99.90;;;;;;5077002;28;20185;-77
2023/10/26 00:05:28;;;;;;;4.30;3.93;;;11.50;99.90;;;;;;5076682;28;20185;-78
2023/10/26 00:07:53;;;;;;;4.00;3.70;;;11.40;99.90;;;;;;5076663;28;20212;-79
2023/10/26 00:10:19;;;;;;;3.50;3.30;;;11.40;99.90;;;;;;5077001;28;20197;-78
2023/10/26 00:12:45;;;;;;;3.60;3.30;;;11.40;99.90;;;;;;5087710;28;20198;-78
2023/10/26 00:15:11;;;;;;;3.67;3.37;;;11.40;99.90;;;;;;5084150;28;20197;-80
2023/10/26 00:17:38;;;;;;;4.30;3.73;;;11.30;99.90;;;;;;5072137;28;20170;-76
2023/10/26 00:20:05;;;;;;;3.27;3.07;;;11.30;99.90;;;;;;5096442;28;20179;-78
2023/10/26 00:22:31;;;;;;;3.43;2.87;;;11.30;99.90;;;;;;5091734;28;20181;-76
2023/10/26 00:24:57;;;;;;;3.30;3.10;;;11.10;99.90;;;;;;5079038;28;20181;-78
2023/10/26 00:27:24;;;;;;;3.50;3.30;;;11.10;99.90;;;;;;5075986;28;20248;-77
2023/10/26 00:29:49;;;;;;;3.33;3.13;;;11.00;99.90;;;;;;5077183;28;20700;-76
2023/10/26 00:32:15;;;;;;;3.30;3.10;;;11.00;99.90;;;;;;5078476;28;20174;-79
2023/10/26 00:34:41;;;;;;;4.87;3.50;;;11.00;99.90;;;;;;5076320;28;20188;-77
2023/10/26 00:37:07;;;;;;;3.70;3.40;;;11.00;99.90;;;;;;5076814;28;20238;-76
2023/10/26 00:39:33;;;;;;;3.53;3.23;;;11.00;99.90;;;;;;5076104;28;20182;-78
2023/10/26 00:41:59;;;;;;;3.33;3.07;;;11.00;99.90;;;;;;5075632;28;20182;-76
2023/10/26 00:44:25;;;;;;;3.07;2.87;;;11.00;99.90;;;;;;5076014;28;20195;-78
2023/10/26 00:46:52;;;;;;;3.90;3.50;;;11.00;99.90;;;;;;5076637;28;20175;-78
2023/10/26 00:49:19;;;;;;;3.60;3.23;;;11.00;99.90;;;;;;5077280;28;20226;-76
2023/10/26 00:52:00;;;;;;;3.50;3.20;;;11.00;99.90;;;;;;5076093;28;20567;-75
2023/10/26 00:54:27;;;;;;;3.27;3.07;;;11.00;99.90;;;;;;5076741;28;20226;-76
2023/10/26 00:56:54;;;;;;;4.13;3.83;;;11.10;99.90;;;;;;5075885;28;20256;-75
2023/10/26 00:59:20;;;;;;;3.80;3.50;;;11.00;99.90;;;;;;5076922;28;20177;-76
2023/10/26 01:01:48;;;;;;;3.13;2.93;;;10.50;99.90;;;;;;5077481;28;20188;-78
2023/10/26 01:04:17;;;;;;;3.93;3.17;;;11.10;99.90;;;;;;5076190;28;20186;-79
2023/10/26 01:06:44;;;;;;;3.47;3.27;;;11.10;99.90;;;;;;5076505;28;20176;-75
2023/10/26 01:09:10;;;;;;;3.60;3.40;;;11.10;99.90;;;;;;5075858;28;20206;-79
2023/10/26 01:11:37;;;;;;;3.20;3.00;;;11.10;99.90;;;;;;5074346;28;20186;-77
2023/10/26 01:14:07;;;;;;;3.30;3.10;;;11.40;99.90;;;;;;5075512;28;20267;-77
2023/10/26 01:16:34;;;;;;;3.40;3.10;;;11.20;99.90;;;;;;5075979;28;20167;-76
2023/10/26 01:19:04;;;;;;;5.50;3.20;;;11.60;99.90;;;;;;5075977;28;20625;-79
2023/10/26 01:21:31;;;;;;;3.43;3.23;;;11.30;99.90;;;;;;5075249;28;20225;-79
2023/10/26 01:23:57;;;;;;;3.17;2.90;;;11.30;99.90;;;;;;5074998;28;20178;-77
2023/10/26 01:26:23;;;;;;;3.73;3.43;;;11.30;99.90;;;;;;5077714;28;20237;-77
2023/10/26 01:28:49;;;;;;;3.67;3.47;;;11.30;99.90;;;;;;5081940;28;20207;-77
2023/10/26 01:31:18;;;;;;;3.67;3.37;;;11.30;99.90;;;;;;5075202;28;20227;-76
2023/10/26 01:33:45;;;;;;;3.50;3.20;;;11.40;99.90;;;;;;5075799;28;20205;-76
2023/10/26 01:36:11;;;;;;;3.67;2.87;;;11.40;99.90;;;;;;5088267;28;20618;-76
2023/10/26 01:38:37;;;;;;;3.83;3.40;;;11.40;99.90;;;;;;5075219;28;20185;-76
2023/10/26 01:41:04;;;;;;;2.90;2.70;;;11.40;99.90;;;;;;5074410;28;20679;-76
2023/10/26 01:43:30;;;;;;;3.07;2.87;;;11.40;99.90;;;;;;5075597;28;20252;-77
2023/10/26 01:45:56;;;;;;;3.30;3.10;;;11.40;99.90;;;;;;5076355;28;20213;-77
2023/10/26 01:48:23;;;;;;;3.10;2.77;;;11.30;99.90;;;;;;5074557;28;20213;-78
2023/10/26 01:50:49;;;;;;;2.43;2.30;;;11.30;99.90;;;;;;5076250;28;20168;-79
2023/10/26 01:53:15;;;;;;;2.90;2.70;;;11.40;99.90;;;;;;5088199;28;20171;-78
2023/10/26 01:55:42;;;;;;;3.00;2.80;;;11.30;99.90;;;;;;5098096;28;20181;-77
2023/10/26 01:58:07;;;;;;;3.00;2.80;;;11.20;99.90;;;;;;5094533;28;20188;-77
2023/10/26 02:00:33;;;;;;;2.60;2.40;;;11.20;99.90;;;;;;5079431;28;20179;-75
2023/10/26 02:02:59;;;;;;;2.93;2.70;;;11.10;99.90;;;;;;5073922;28;20174;-77
2023/10/26 02:05:25;;;;;;;3.10;2.90;;;11.10;99.90;;;;;;5072956;28;20179;-75
2023/10/26 02:07:50;;;;;;;2.50;2.40;;;11.00;99.90;;;;;;5074348;28;20176;-78
2023/10/26 02:10:19;;;;;;;3.50;2.70;;;11.00;99.90;;;;;;5074636;28;20174;-77
2023/10/26 02:12:44;;;;;;;2.90;2.70;;;11.00;99.90;;;;;;5075513;28;20171;-77
2023/10/26 02:15:11;;;;;;;3.00;2.80;;;11.00;99.90;;;;;;5074169;28;20518;-76
2023/10/26 02:17:37;;;;;;;2.93;2.60;;;11.00;99.90;;;;;;5074742;28;20166;-77
2023/10/26 02:20:04;;;;;;;4.33;2.30;;;11.10;99.90;;;;;;5074360;28;20231;-76
2023/10/26 02:22:29;;;;;;;2.73;2.53;;;11.10;99.90;;;;;;5075557;28;20217;-78
2023/10/26 02:24:55;;;;;;;2.53;2.40;;;11.20;99.90;;;;;;5075854;28;20174;-75
2023/10/26 02:27:21;;;;;;;3.20;2.90;;;11.20;99.90;;;;;;5076479;28;20181;-77
2023/10/26 02:29:46;;;;;;;2.70;2.53;;;11.30;99.90;;;;;;5074011;28;20259;-78
2023/10/26 02:32:13;;;;;;;2.70;2.60;;;11.20;99.90;;;;;;5074432;28;20228;-78
2023/10/26 02:34:39;;;;;;;2.70;2.60;;;11.20;99.90;;;;;;5073907;28;20208;-76
2023/10/26 02:37:05;;;;;;;2.57;2.40;;;11.20;99.90;;;;;;5074164;28;20626;-77
2023/10/26 02:39:30;;;;;;;2.93;2.67;;;11.10;99.90;;;;;;5075959;28;20170;-78
2023/10/26 02:41:57;;;;;;;2.70;2.60;;;11.10;99.90;;;;;;5072156;28;20634;-78
2023/10/26 02:44:22;;;;;;;2.57;2.37;;;11.20;99.90;;;;;;5073704;28;20177;-78
2023/10/26 02:46:48;;;;;;;2.77;2.67;;;11.20;99.90;;;;;;5072439;28;20258;-78
2023/10/26 02:49:14;;;;;;;2.47;2.30;;;10.90;99.90;;;;;;5072650;28;20234;-76
2023/10/26 02:51:40;;;;;;;2.33;2.23;;;11.20;99.90;;;;;;5075248;28;20170;-79
2023/10/26 02:54:06;;;;;;;2.53;2.43;;;11.20;99.90;;;;;;5078577;28;20260;-77
2023/10/26 02:56:32;;;;;;;2.90;2.70;;;11.20;99.90;;;;;;5081495;28;20186;-77
2023/10/26 02:58:57;;;;;;;3.27;3.00;;;11.20;99.90;;;;;;5086869;28;20179;-78
2023/10/26 03:01:23;;;;;;;3.43;3.13;;;11.10;99.90;;;;;;5085673;28;20190;-76
2023/10/26 03:03:49;;;;;;;3.20;3.00;;;11.00;99.90;;;;;;5073716;28;20204;-77
2023/10/26 03:06:15;;;;;;;3.53;3.33;;;11.00;99.90;;;;;;5073003;28;20220;-77
2023/10/26 03:08:40;;;;;;;3.93;3.20;;;11.10;99.90;;;;;;5073141;28;20814;-77
2023/10/26 03:11:06;;;;;;;6.67;3.20;;;11.10;99.90;;;;;;5072936;28;20185;-78
2023/10/26 03:13:32;;;;;;;3.10;2.90;;;11.20;99.90;;;;;;5073265;28;20633;-78
2023/10/26 03:15:57;;;;;;;2.17;2.07;;;11.10;99.90;;;;;;5077842;28;20178;-76
2023/10/26 03:18:23;;;;;;;3.07;2.90;;;11.20;99.90;;;;;;5073638;28;20236;-77
2023/10/26 03:20:49;;;;;;;2.47;2.33;;;11.20;99.90;;;;;;5074423;28;20232;-78
2023/10/26 03:23:15;;;;;;;2.50;2.40;;;11.30;99.90;;;;;;5073478;28;20277;-78
2023/10/26 03:25:40;;;;;;;3.33;2.50;;;11.20;99.90;;;;;;5081040;28;20230;-78
2023/10/26 03:28:06;;;;;;;2.40;2.30;;;10.80;99.90;;;;;;5090134;28;20212;-75
2023/10/26 03:30:32;;;;;;;9.27;3.27;;;11.10;99.90;;;;;;5095743;28;20174;-79
2023/10/26 03:32:58;;;;;;;3.70;2.53;;;11.00;99.90;;;;;;5094915;28;20166;-77
2023/10/26 03:35:23;;;;;;;2.73;2.53;;;11.00;99.90;;;;;;5082695;28;20188;-76
2023/10/26 03:37:49;;;;;;;2.90;2.70;;;11.00;99.90;;;;;;5074081;28;20177;-78
2023/10/26 03:40:15;;;;;;;3.30;3.10;;;11.00;99.90;;;;;;5072085;28;20175;-77
2023/10/26 03:42:41;;;;;;;3.33;3.13;;;10.90;99.90;;;;;;5074398;28;20248;-78
2023/10/26 03:45:07;;;;;;;3.90;3.60;;;10.90;99.90;;;;;;5079393;28;20273;-79
2023/10/26 03:47:34;;;;;;;4.17;3.77;;;10.90;99.90;;;;;;5073784;28;20177;-77
2023/10/26 03:50:00;;;;;;;3.70;3.40;;;10.90;99.90;;;;;;5073322;28;20297;-76
2023/10/26 03:52:26;;;;;;;3.53;3.23;;;10.90;99.90;;;;;;5070978;28;20275;-78
2023/10/26 03:54:53;;;;;;;3.20;2.93;;;10.90;99.90;;;;;;5072965;28;20261;-79
2023/10/26 03:57:19;;;;;;;3.33;2.97;;;10.80;99.90;;;;;;5074613;28;20226;-77
2023/10/26 03:59:44;;;;;;;3.73;2.97;;;10.80;99.90;;;;;;5072344;28;20171;-77
2023/10/26 04:02:10;;;;;;;3.70;3.30;;;10.80;99.90;;;;;;5072599;28;20644;-77
2023/10/26 04:04:36;;;;;;;2.50;2.30;;;10.80;99.90;;;;;;5071110;28;20661;-78
2023/10/26 04:07:02;;;;;;;2.93;2.83;;;10.80;99.90;;;;;;5072053;28;20269;-77
2023/10/26 04:09:28;;;;;;;2.83;2.70;;;10.80;99.90;;;;;;5072502;28;20562;-76
2023/10/26 04:11:54;;;;;;;4.73;3.07;;;10.80;99.90;;;;;;5072270;28;20170;-78
2023/10/26 04:14:20;;;;;;;2.60;2.50;;;10.80;99.90;;;;;;5084073;28;20189;-78
2023/10/26 04:16:47;;;;;;;4.50;4.20;;;10.80;99.90;;;;;;5085154;28;20171;-78
2023/10/26 04:19:13;;;;;;;4.07;3.77;;;10.80;99.90;;;;;;5076609;28;20554;-76
2023/10/26 04:21:39;;;;;;;4.50;3.10;;;10.80;99.90;;;;;;5077933;28;20521;-76
2023/10/26 04:24:05;;;;;;;3.37;2.97;;;10.80;99.90;;;;;;5078213;28;20631;-77
2023/10/26 04:26:31;;;;;;;3.00;2.70;;;10.80;99.90;;;;;;5078743;28;20229;-77
2023/10/26 04:28:57;;;;;;;2.93;2.63;;;10.70;99.90;;;;;;5081935;28;20217;-78
2023/10/26 04:31:22;;;;;;;3.13;2.63;;;10.70;99.90;;;;;;5076426;28;20228;-78
2023/10/26 04:33:49;;;;;;;3.13;2.60;;;10.70;99.90;;;;;;5075033;28;20171;-77
2023/10/26 04:36:15;;;;;;;2.57;2.47;;;10.60;99.90;;;;;;5075877;28;20193;-77
2023/10/26 04:38:40;;;;;;;3.40;2.70;;;10.50;99.90;;;;;;5076119;28;20700;-78
2023/10/26 04:41:06;;;;;;;2.77;2.60;;;10.60;99.90;;;;;;5076939;28;20212;-77
2023/10/26 04:43:32;;;;;;;2.53;2.33;;;10.60;99.90;;;;;;5075549;28;20172;-76
2023/10/26 04:45:58;;;;;;;2.50;2.40;;;10.60;99.90;;;;;;5075382;28;20182;-76
2023/10/26 04:48:24;;;;;;;2.57;2.37;;;10.60;99.90;;;;;;5075321;28;20685;-76
2023/10/26 04:50:50;;;;;;;2.50;2.40;;;10.70;99.90;;;;;;5075650;28;20546;-76
2023/10/26 04:53:16;;;;;;;2.67;2.50;;;10.40;99.90;;;;;;5075178;28;20636;-77
2023/10/26 04:55:41;;;;;;;2.50;2.30;;;10.40;99.90;;;;;;5073452;28;20523;-78
2023/10/26 04:58:08;;;;;;;2.70;2.50;;;10.40;99.90;;;;;;5074961;28;20169;-76
2023/10/26 05:00:34;;;;;;;2.40;2.30;;;10.40;99.90;;;;;;5075338;28;20189;-77
2023/10/26 05:02:59;;;;;;;2.03;2.00;;;10.40;99.90;;;;;;5077353;28;20530;-77
2023/10/26 05:05:25;;;;;;;3.00;2.20;;;10.40;99.90;;;;;;5091383;28;20187;-79
2023/10/26 05:07:51;;;;;;;2.63;2.53;;;10.50;99.90;;;;;;5099482;28;20178;-79
2023/10/26 05:10:17;;;;;;;2.60;2.40;;;10.50;99.90;;;;;;5085327;28;20212;-75
2023/10/26 05:12:42;;;;;;;2.83;2.40;;;10.60;99.90;;;;;;5088899;28;20169;-80
2023/10/26 05:15:08;;;;;;;3.17;2.97;;;10.60;99.90;;;;;;5096675;28;20195;-76
2023/10/26 05:17:38;;;;;;;4.07;2.27;;;10.60;99.90;;;;;;5083658;28;20232;-77
2023/10/26 05:20:05;;;;;;;4.27;2.50;;;10.70;99.90;;;;;;5076125;28;20660;-78
2023/10/26 05:22:34;;;;;;;3.97;2.50;;;10.60;99.90;;;;;;5075534;28;20185;-76
2023/10/26 05:25:04;;;;;;;2.27;2.17;;;10.60;99.90;;;;;;5074696;28;20225;-77
2023/10/26 05:27:30;;;;;;;3.60;2.40;;;10.60;99.90;;;;;;5074761;28;20173;-78
2023/10/26 05:29:56;;;;;;;2.43;2.27;;;10.50;99.90;;;;;;5078648;28;20260;-78
2023/10/26 05:32:21;;;;;;;2.70;2.60;;;10.80;99.90;;;;;;5078096;28;20205;-78
2023/10/26 05:34:47;;;;;;;2.97;2.77;;;10.60;99.90;;;;;;5083721;28;20268;-76
2023/10/26 05:37:13;;;;;;;2.77;2.57;;;10.60;99.90;;;;;;5085031;28;20213;-78
2023/10/26 05:39:39;;;;;;;3.03;2.43;;;10.60;99.90;;;;;;5079540;28;20234;-77
2023/10/26 05:42:04;;;;;;;5.73;3.90;;;10.60;99.90;;;;;;5074319;28;20255;-76
2023/10/26 05:44:31;;;;;;;3.10;2.87;;;10.60;99.90;;;;;;5075701;28;20229;-77
2023/10/26 05:46:59;;;;;;;3.33;2.60;;;10.60;99.90;;;;;;5075032;28;20208;-76
2023/10/26 05:49:25;;;;;;;3.00;2.70;;;10.60;99.90;;;;;;5073480;28;20617;-79
2023/10/26 05:51:51;;;;;;;3.67;2.90;;;10.60;99.90;;;;;;5074474;28;20228;-77
2023/10/26 05:54:16;;;;;;;2.83;2.63;;;10.70;99.90;;;;;;5074468;28;20182;-78
2023/10/26 05:56:42;;;;;;;2.93;2.73;;;10.70;99.90;;;;;;5080405;28;20201;-77
2023/10/26 05:59:08;;;;;;;3.57;2.97;;;10.70;99.90;;;;;;5074772;28;20182;-77
2023/10/26 06:01:34;;;;;;;3.20;3.00;;;10.70;99.90;;;;;;5074351;28;20169;-80
2023/10/26 06:03:59;;;;;;;3.47;3.27;;;10.70;99.90;;;;;;5078351;28;20204;-77
2023/10/26 06:06:25;;;;;;;3.40;3.20;;;10.70;99.90;;;;;;5074493;28;20180;-79
2023/10/26 06:08:51;;;;;;;4.03;3.50;;;10.60;99.90;;;;;;5074446;28;20567;-76
2023/10/26 06:11:17;;;;;;;5.27;3.40;;;10.70;99.90;;;;;;5084550;28;20164;-78
2023/10/26 06:13:43;;;;;;;3.50;3.30;;;10.40;99.90;;;;;;5084633;28;20194;-76
2023/10/26 06:16:12;;;;;;;3.97;3.67;;;10.60;99.90;;;;;;5076946;28;20226;-77
2023/10/26 06:18:39;;;;;;;3.97;3.53;;;10.60;99.90;;;;;;5074539;28;20172;-77
2023/10/26 06:21:05;;;;;;;3.90;3.30;;;10.20;99.90;;;;;;5074445;28;20176;-78
2023/10/26 06:23:31;;;;;;;11.73;6.57;;;10.70;99.90;;;;;;5073495;28;20515;-78
2023/10/26 06:26:00;;;;;;;10.57;5.83;;;10.70;99.90;;;;;;5073204;28;20222;-77
2023/10/26 06:28:27;;;;;;;5.93;4.30;;;10.70;99.90;;;;;;5073988;28;20561;-77
2023/10/26 06:30:54;;;;;;;5.70;3.90;;;10.70;99.90;;;;;;5073756;28;20515;-75
2023/10/26 06:33:20;;;;;;;7.57;4.83;;;10.70;99.90;;;;;;5072172;28;20184;-76
2023/10/26 06:35:45;;;;;;;4.40;3.60;;;10.70;99.90;;;;;;5074284;28;20185;-76
2023/10/26 06:38:11;;;;;;;3.33;2.80;;;10.80;99.90;;;;;;5072490;28;20261;-78
2023/10/26 06:40:37;;;;;;;2.77;2.60;;;10.80;99.90;;;;;;5082740;28;20194;-77
2023/10/26 06:43:03;;;;;;;6.33;4.10;;;10.80;99.90;;;;;;5096744;28;20194;-80
2023/10/26 06:45:29;;;;;;;3.13;2.93;;;11.30;99.90;;;;;;5096550;28;20251;-78
2023/10/26 06:47:55;;;;;;;6.50;2.90;;;10.90;99.90;;;;;;5075447;28;20178;-78
2023/10/26 06:50:22;;;;;;;3.20;3.00;;;11.00;99.90;;;;;;5075048;28;20236;-78
2023/10/26 06:52:48;;;;;;;3.30;2.93;;;11.10;99.90;;;;;;5082008;28;20531;-78
2023/10/26 06:55:16;;;;;;;3.53;2.83;;;11.20;99.90;;;;;;5082118;28;20187;-76
2023/10/26 06:57:43;;;;;;;4.10;2.97;;;11.40;99.90;;;;;;5075343;28;20205;-76
2023/10/26 07:00:10;;;;;;;3.10;2.90;;;11.40;99.90;;;;;;5074527;28;20189;-77
2023/10/26 07:02:36;;;;;;;3.47;2.90;;;11.60;99.90;;;;;;5074140;28;20174;-76
2023/10/26 07:05:05;;;;;;;4.03;3.40;;;11.60;99.90;;;;;;5073690;28;20185;-77
2023/10/26 07:07:36;;;;;;;5.70;3.33;;;11.70;99.90;;;;;;5072435;28;20203;-77
2023/10/26 07:10:02;;;;;;;6.43;4.63;;;10.00;99.90;;;;;;5073268;28;20214;-78
2023/10/26 07:12:29;;;;;;;4.83;3.73;;;12.80;99.90;;;;;;5073004;28;20269;-77
2023/10/26 07:14:54;;;;;;;3.73;3.43;;;11.90;99.90;;;;;;5074358;28;20177;-77
2023/10/26 07:17:21;;;;;;;4.90;3.13;;;11.90;99.90;;;;;;5080887;28;20182;-77
2023/10/26 07:19:47;;;;;;;3.90;3.27;;;12.00;99.90;;;;;;5074298;28;20648;-78
2023/10/26 07:22:13;;;;;;;3.93;3.63;;;12.00;99.90;;;;;;5072725;28;20186;-79
2023/10/26 07:24:38;;;;;;;4.10;3.70;;;12.00;99.90;;;;;;5073322;28;20536;-77
2023/10/26 07:27:04;;;;;;;4.00;3.60;;;12.00;99.90;;;;;;5073145;28;20233;-77
2023/10/26 07:29:30;;;;;;;3.80;3.50;;;12.20;99.90;;;;;;5077265;28;20207;-78
2023/10/26 07:31:56;;;;;;;3.50;3.30;;;12.30;99.90;;;;;;5076843;28;20183;-78
2023/10/26 07:34:22;;;;;;;4.70;4.30;;;12.40;99.90;;;;;;5075170;28;20175;-78
2023/10/26 07:36:48;;;;;;;8.03;4.43;;;12.50;99.90;;;;;;5074082;28;20168;-78
2023/10/26 07:39:14;;;;;;;4.00;3.70;;;12.60;99.90;;;;;;5077813;28;20186;-77
2023/10/26 07:41:40;;;;;;;4.47;3.80;;;12.60;99.90;;;;;;5074629;28;20513;-76
2023/10/26 07:44:06;;;;;;;5.37;2.97;;;12.60;99.90;;;;;;5072760;28;20185;-77
2023/10/26 07:46:31;;;;;;;3.63;3.23;;;12.60;99.90;;;;;;5071613;28;20178;-78
2023/10/26 07:48:57;;;;;;;3.33;3.13;;;12.60;99.90;;;;;;5070995;28;20569;-76
2023/10/26 07:51:26;;;;;;;4.03;3.03;;;12.70;99.90;;;;;;5076105;28;20178;-76
2023/10/26 07:53:51;;;;;;;4.90;2.63;;;12.70;99.90;;;;;;5076629;28;20351;-78
2023/10/26 07:56:17;;;;;;;3.27;3.07;;;12.70;99.90;;;;;;5076496;28;20689;-77
2023/10/26 07:58:43;;;;;;;4.47;3.37;;;12.70;99.90;;;;;;5076915;28;20233;-79
2023/10/26 08:01:09;;;;;;;3.27;3.00;;;13.50;99.90;;;;;;5076577;28;20586;-76
2023/10/26 08:03:35;;;;;;;3.37;3.17;;;12.80;99.90;;;;;;5076474;28;20171;-76
2023/10/26 08:06:02;;;;;;;3.23;2.93;;;12.90;99.90;;;;;;5076763;28;20635;-77
2023/10/26 08:08:29;;;;;;;3.00;2.80;;;12.90;99.90;;;;;;5077099;28;20202;-77
2023/10/26 08:11:10;;;;;;;3.03;2.80;;;12.90;99.90;;;;;;5091872;28;20225;-78
2023/10/26 08:13:36;;;;;;;3.33;2.83;;;13.20;99.90;;;;;;5096887;28;20163;-79
2023/10/26 08:16:02;;;;;;;4.20;3.27;;;13.10;99.90;;;;;;5084091;28;20163;-77
2023/10/26 08:18:27;;;;;;;3.30;3.10;;;13.20;99.90;;;;;;5100409;28;20182;-80
2023/10/26 08:20:54;;;;;;;3.27;3.07;;;13.30;99.90;;;;;;5093646;28;20190;-76
2023/10/26 08:23:20;;;;;;;3.23;3.03;;;13.50;99.90;;;;;;5077370;28;20240;-77
2023/10/26 08:25:47;;;;;;;3.53;3.23;;;13.60;99.90;;;;;;5075868;28;20306;-76
2023/10/26 08:28:16;;;;;;;3.37;3.07;;;13.70;99.90;;;;;;5076120;28;20170;-77
2023/10/26 08:30:42;;;;;;;2.60;2.50;;;13.90;99.90;;;;;;5076663;28;20186;-78
2023/10/26 08:33:08;;;;;;;2.70;2.50;;;13.90;99.90;;;;;;5087534;28;20179;-79
2023/10/26 08:35:34;;;;;;;3.40;2.63;;;14.00;99.90;;;;;;5086539;28;20558;-75
2023/10/26 08:38:00;;;;;;;3.10;2.40;;;14.00;99.90;;;;;;5074566;28;20702;-75
2023/10/26 08:40:26;;;;;;;2.20;2.10;;;14.10;99.90;;;;;;5075638;28;20254;-78
2023/10/26 08:42:52;;;;;;;3.73;2.43;;;14.20;99.90;;;;;;5075778;28;20179;-77
2023/10/26 08:45:29;;;;;;;2.73;2.50;;;14.30;99.90;;;;;;5077663;28;20951;-78
2023/10/26 08:47:57;;;;;;;2.50;2.40;;;14.30;99.90;;;;;;5076677;28;20163;-78
2023/10/26 08:50:23;;;;;;;2.37;2.27;;;14.40;99.90;;;;;;5075210;28;20180;-76
2023/10/26 08:52:51;;;;;;;2.70;2.50;;;14.50;99.90;;;;;;5076369;28;20167;-75
2023/10/26 08:55:17;;;;;;;3.13;2.40;;;14.60;99.90;;;;;;5075606;28;20198;-76
2023/10/26 08:57:48;;;;;;;2.70;2.50;;;14.70;99.90;;;;;;5076090;28;20274;-76
2023/10/26 09:00:14;;;;;;;2.70;2.50;;;14.80;99.90;;;;;;5077492;28;20641;-77
2023/10/26 09:02:40;;;;;;;2.53;2.43;;;14.90;99.90;;;;;;5080209;28;20171;-76
2023/10/26 09:05:08;;;;;;;2.53;2.33;;;15.00;99.90;;;;;;5082585;28;20267;-76
2023/10/26 09:07:34;;;;;;;3.17;2.60;;;14.90;99.90;;;;;;5077142;28;20634;-78
2023/10/26 09:10:01;;;;;;;2.70;2.50;;;14.90;99.90;;;;;;5078868;28;20205;-76
2023/10/26 09:12:27;;;;;;;2.90;2.70;;;15.00;99.90;;;;;;5079173;28;20202;-77
2023/10/26 09:15:06;;;;;;;2.93;2.73;;;15.10;99.90;;;;;;5075568;28;20174;-76
2023/10/26 09:17:33;;;;;;;3.10;2.60;;;15.10;99.90;;;;;;5074262;28;20221;-76
2023/10/26 09:20:15;;;;;;;2.43;2.30;;;15.00;99.90;;;;;;5074368;28;20284;-78
2023/10/26 09:22:41;;;;;;;2.20;2.10;;;15.00;99.90;;;;;;5073932;28;20232;-77
2023/10/26 09:25:11;;;;;;;2.93;2.70;;;15.10;99.90;;;;;;5074840;28;20168;-75
2023/10/26 09:27:38;;;;;;;2.37;2.27;;;15.30;99.90;;;;;;5075172;28;20178;-77
2023/10/26 09:30:05;;;;;;;2.30;2.20;;;15.50;99.90;;;;;;5075286;28;20215;-78
2023/10/26 09:32:36;;;;;;;2.57;2.40;;;15.50;99.90;;;;;;5089236;28;20175;-75
2023/10/26 09:35:03;;;;;;;4.50;2.53;;;15.50;99.90;;;;;;5091980;28;20647;-76
2023/10/26 09:37:30;;;;;;;2.40;2.30;;;15.60;99.90;;;;;;5074457;28;20180;-76
2023/10/26 09:39:57;;;;;;;2.50;2.40;;;15.60;99.90;;;;;;5073234;28;20175;-77
2023/10/26 09:42:25;;;;;;;2.40;2.20;;;15.70;99.90;;;;;;5076014;28;20203;-75
2023/10/26 09:44:51;;;;;;;2.27;2.17;;;15.70;99.90;;;;;;5074794;28;20187;-76
2023/10/26 09:47:17;;;;;;;3.17;2.10;;;15.80;99.90;;;;;;5074139;28;20174;-76
2023/10/26 09:49:43;;;;;;;2.73;2.50;;;15.70;99.90;;;;;;5074227;28;20216;-78
2023/10/26 09:52:09;;;;;;;2.53;2.33;;;15.80;99.90;;;;;;5076007;28;20254;-77
2023/10/26 09:54:37;;;;;;;2.50;2.30;;;15.80;99.90;;;;;;5073746;28;20179;-77
2023/10/26 09:57:06;;;;;;;2.70;2.50;;;15.80;99.90;;;;;;5072506;28;20179;-78
2023/10/26 09:59:32;;;;;;;4.07;2.30;;;15.90;99.90;;;;;;5072691;28;20221;-75
2023/10/26 10:01:58;;;;;;;2.43;2.20;;;15.90;99.90;;;;;;5073579;28;20604;-77
2023/10/26 10:04:37;;;;;;;2.20;2.03;;;16.00;99.90;;;;;;5074520;28;20202;-77
2023/10/26 10:07:03;;;;;;;1.97;1.87;;;16.10;99.90;;;;;;5073729;28;20170;-78
2023/10/26 10:09:30;;;;;;;2.10;2.00;;;16.20;99.90;;;;;;5073852;28;20231;-76
2023/10/26 10:12:05;;;;;;;1.93;1.83;;;16.30;99.90;;;;;;5073756;28;20600;-77
2023/10/26 10:14:54;;;;;;;2.00;1.80;;;16.30;99.90;;;;;;5075692;28;20174;-77
2023/10/26 10:17:22;;;;;;;2.20;2.00;;;16.20;99.90;;;;;;5077995;28;20182;-78
2023/10/26 10:20:22;;;;;;;2.10;2.00;;;16.20;99.90;;;;;;5075876;28;20582;-77
2023/10/26 10:22:49;;;;;;;2.83;1.80;;;16.30;99.90;;;;;;5073240;28;20210;-75
2023/10/26 10:25:18;;;;;;;2.90;2.60;;;16.50;99.90;;;;;;5073244;28;20634;-76
2023/10/26 10:27:49;;;;;;;2.47;2.27;;;16.50;99.90;;;;;;5073538;28;20167;-76
2023/10/26 10:30:19;;;;;;;2.97;2.63;;;16.60;99.90;;;;;;5072052;28;20319;-77
2023/10/26 10:32:47;;;;;;;3.37;2.67;;;16.80;99.90;;;;;;5074188;28;20194;-76
2023/10/26 10:35:31;;;;;;;4.10;2.13;;;16.90;99.90;;;;;;5093141;28;20282;-76
2023/10/26 10:38:12;;;;;;;12.93;4.67;;;17.00;99.90;;;;;;5086244;28;20170;-78
2023/10/26 10:40:39;;;;;;;5.77;3.57;;;17.00;99.90;;;;;;5078776;28;20561;-78
2023/10/26 10:43:05;;;;;;;2.50;2.30;;;17.20;99.90;;;;;;5078079;28;20542;-76
2023/10/26 10:45:31;;;;;;;6.57;2.80;;;17.20;99.90;;;;;;5076187;28;20176;-78
2023/10/26 10:47:57;;;;;;;3.20;2.70;;;17.20;99.90;;;;;;5083131;28;20194;-79
2023/10/26 10:50:28;;;;;;;2.70;2.20;;;17.30;99.90;;;;;;5086645;28;20713;-78
2023/10/26 10:52:55;;;;;;;3.10;2.77;;;17.30;99.90;;;;;;5087083;28;20221;-76
2023/10/26 10:55:24;;;;;;;2.07;1.97;;;17.30;99.90;;;;;;5074102;28;20183;-76
2023/10/26 10:58:01;;;;;;;2.07;1.90;;;17.20;99.90;;;;;;5076520;28;20206;-76
2023/10/26 11:00:40;;;;;;;2.33;1.70;;;17.30;99.90;;;;;;5072999;28;20182;-77
2023/10/26 11:03:06;;;;;;;1.80;1.70;;;17.30;99.90;;;;;;5071900;28;20175;-77
2023/10/26 11:05:40;;;;;;;2.10;1.90;;;17.20;99.90;;;;;;5073289;28;20669;-75
2023/10/26 11:08:07;;;;;;;2.20;2.10;;;17.30;99.90;;;;;;5072567;28;20167;-77
2023/10/26 11:10:33;;;;;;;2.10;1.90;;;17.30;99.90;;;;;;5072919;28;20190;-77
2023/10/26 11:12:59;;;;;;;2.10;2.00;;;17.30;99.90;;;;;;5072773;28;20198;-77
2023/10/26 11:15:36;;;;;;;2.00;1.90;;;17.30;99.90;;;;;;5073941;28;20202;-78
2023/10/26 11:18:04;;;;;;;2.03;1.93;;;17.30;99.90;;;;;;5088171;28;20179;-76
2023/10/26 11:20:38;;;;;;;2.10;2.00;;;17.30;99.90;;;;;;5074581;28;20174;-77
2023/10/26 11:23:08;;;;;;;1.97;1.87;;;17.30;99.90;;;;;;5073236;28;20178;-77
2023/10/26 11:25:35;;;;;;;1.87;1.77;;;17.30;99.90;;;;;;5074405;28;20321;-76
2023/10/26 11:28:01;;;;;;;2.43;2.20;;;17.30;99.90;;;;;;5078410;28;20670;-76
2023/10/26 11:30:27;;;;;;;2.37;1.67;;;17.30;99.90;;;;;;5076535;28;20189;-77
2023/10/26 11:32:53;;;;;;;2.83;2.03;;;17.30;99.90;;;;;;5076844;28;20171;-76
2023/10/26 11:35:19;;;;;;;1.70;1.60;;;17.20;99.90;;;;;;5077189;28;20202;-76
2023/10/26 11:37:47;;;;;;;1.83;1.77;;;17.30;99.90;;;;;;5077035;28;20719;-78
2023/10/26 11:40:15;;;;;;;2.43;2.30;;;17.40;99.90;;;;;;5075587;28;20174;-77
2023/10/26 11:42:48;;;;;;;2.07;1.97;;;17.50;99.90;;;;;;5076601;28;20642;-76
2023/10/26 11:45:17;;;;;;;2.33;2.23;;;17.40;99.90;;;;;;5076577;28;20535;-76
2023/10/26 11:48:03;;;;;;;1.90;1.80;;;17.40;99.90;;;;;;5075082;28;20183;-75
2023/10/26 11:50:36;;;;;;;1.77;1.63;;;17.50;99.90;;;;;;5074707;28;20205;-77
2023/10/26 11:53:04;;;;;;;2.73;1.90;;;17.50;99.90;;;;;;5076025;28;20183;-76
2023/10/26 11:55:34;;;;;;;2.00;1.90;;;17.60;99.90;;;;;;5082656;28;20191;-78
2023/10/26 11:58:01;;;;;;;2.40;2.30;;;17.60;99.90;;;;;;5078949;28;20190;-76
2023/10/26 12:00:29;;;;;;;2.53;1.80;;;17.70;99.90;;;;;;5076719;28;20176;-76
2023/10/26 12:02:56;;;;;;;1.93;1.83;;;17.70;99.90;;;;;;5074295;28;20178;-77
2023/10/26 12:05:23;;;;;;;1.97;1.83;;;17.60;99.90;;;;;;5077135;28;20179;-77
2023/10/26 12:07:49;;;;;;;2.40;2.20;;;17.60;99.90;;;;;;5076785;28;20168;-76
2023/10/26 12:10:17;;;;;;;1.80;1.70;;;17.50;99.90;;;;;;5077440;28;20245;-77
2023/10/26 12:12:44;;;;;;;1.97;1.73;;;17.50;99.90;;;;;;5090872;28;20167;-78
2023/10/26 12:15:10;;;;;;;2.70;2.10;;;17.50;99.90;;;;;;5076425;28;20201;-77
2023/10/26 12:17:36;;;;;;;1.63;1.53;;;17.40;99.90;;;;;;5078155;28;20530;-77
2023/10/26 12:20:03;;;;;;;1.70;1.60;;;17.40;99.90;;;;;;5083080;28;20183;-77
2023/10/26 12:22:29;;;;;;;1.80;1.70;;;17.40;99.90;;;;;;5094189;28;20179;-76
2023/10/26 12:24:55;;;;;;;1.83;1.70;;;17.40;99.90;;;;;;5091831;28;20186;-77
2023/10/26 12:27:21;;;;;;;2.43;1.87;;;17.40;99.90;;;;;;5089514;28;20183;-76
2023/10/26 12:29:47;;;;;;;2.07;1.90;;;17.40;99.90;;;;;;5083287;28;20203;-76
2023/10/26 12:32:14;;;;;;;2.20;2.10;;;17.30;99.90;;;;;;5078161;28;20166;-76
2023/10/26 12:34:40;;;;;;;2.30;2.10;;;17.20;99.90;;;;;;5076108;28;20623;-77
2023/10/26 12:37:06;;;;;;;1.90;1.80;;;17.20;99.90;;;;;;5075625;28;20259;-76
2023/10/26 12:39:32;;;;;;;2.60;2.47;;;17.20;99.90;;;;;;5076487;28;20240;-77
2023/10/26 12:41:58;;;;;;;4.70;3.20;;;17.20;99.90;;;;;;5080181;28;20173;-76
2023/10/26 12:44:24;;;;;;;2.77;2.60;;;17.20;99.90;;;;;;5079977;28;20191;-77